Time;durP1;ratioP1;P1;durP2;ratioP2;P2;SDS_P1;SDS_P2;PMS_P1;PMS_P2;Temp;Humidity;BMP_temperature;BMP_pressure;BME280_temperature;BME280_humidity;BME280_pressure;Samples;Min_cycle;Max_cycle;Signal;HPM_P1;HPM_P2
2022/11/17 00:02:03;;;;;;;6.70;2.63;;;10.40;99.90;;;;;;5072334;28;20166;-50
2022/11/17 00:04:28;;;;;;;5.47;2.67;;;10.50;99.90;;;;;;5072171;28;20170;-50
2022/11/17 00:06:54;;;;;;;10.13;2.90;;;10.50;99.90;;;;;;5072164;28;20233;-51
2022/11/17 00:09:19;;;;;;;11.35;4.50;;;10.10;99.90;;;;;;5072344;28;20162;-50
2022/11/17 00:14:31;;;;;;;5.38;3.10;;;10.50;99.90;;;;;;5072521;28;20277;-50
2022/11/17 00:16:58;;;;;;;5.93;2.83;;;10.50;99.90;;;;;;5072265;28;20172;-50
2022/11/17 00:22:07;;;;;;;7.47;2.47;;;10.50;99.90;;;;;;5052732;28;20177;-50
2022/11/17 00:24:33;;;;;;;9.65;2.75;;;10.40;99.90;;;;;;5053518;28;20632;-50
2022/11/17 00:27:01;;;;;;;11.65;3.42;;;10.50;99.90;;;;;;5053357;28;20626;-50
2022/11/17 00:29:27;;;;;;;7.93;2.10;;;10.50;99.90;;;;;;5053492;28;20199;-50
2022/11/17 00:34:37;;;;;;;3.05;1.80;;;10.50;99.90;;;;;;5053870;28;20210;-50
2022/11/17 00:37:04;;;;;;;5.63;2.20;;;10.60;99.90;;;;;;5053325;28;20198;-51
2022/11/17 00:39:31;;;;;;;31.63;9.25;;;10.50;99.90;;;;;;5053338;28;20198;-50
2022/11/17 00:41:57;;;;;;;7.60;2.75;;;10.50;99.90;;;;;;5053208;28;20220;-50
2022/11/17 00:44:23;;;;;;;8.13;3.17;;;10.50;99.90;;;;;;5052929;28;20520;-50
2022/11/17 00:46:49;;;;;;;3.22;2.22;;;10.50;99.90;;;;;;5053199;28;20206;-50
2022/11/17 00:49:14;;;;;;;9.55;3.65;;;10.60;99.90;;;;;;5053075;28;20162;-50
2022/11/17 00:51:40;;;;;;;6.50;2.45;;;10.50;99.90;;;;;;5052930;28;20265;-51
2022/11/17 00:54:09;;;;;;;8.73;3.13;;;10.50;99.90;;;;;;5053423;28;20512;-50
2022/11/17 00:56:34;;;;;;;4.47;1.90;;;10.50;99.90;;;;;;5053538;28;20539;-50
2022/11/17 00:59:00;;;;;;;8.30;3.72;;;10.50;99.90;;;;;;5052841;28;20163;-50
2022/11/17 01:01:26;;;;;;;5.10;2.03;;;10.50;99.90;;;;;;5052698;28;20308;-50
2022/11/17 01:04:01;;;;;;;6.68;2.22;;;10.60;99.90;;;;;;5052585;28;20171;-51
2022/11/17 01:06:29;;;;;;;3.55;1.70;;;10.50;99.90;;;;;;5053014;28;20209;-50
2022/11/17 01:08:57;;;;;;;6.15;2.03;;;10.50;99.90;;;;;;5052809;28;20649;-50
2022/11/17 01:11:22;;;;;;;9.07;1.98;;;10.60;99.90;;;;;;5052721;28;20285;-50
2022/11/17 01:13:48;;;;;;;5.65;3.17;;;10.50;99.90;;;;;;5052631;28;20258;-50
2022/11/17 01:16:16;;;;;;;6.05;2.25;;;10.60;99.90;;;;;;5052604;28;20272;-51
2022/11/17 01:18:44;;;;;;;10.38;1.83;;;10.50;99.90;;;;;;5052707;28;20229;-50
2022/11/17 01:21:17;;;;;;;2.47;1.40;;;10.60;99.90;;;;;;5052594;28;20167;-51
2022/11/17 01:23:44;;;;;;;4.72;2.17;;;10.60;99.90;;;;;;5052071;28;20695;-50
2022/11/17 01:26:18;;;;;;;5.53;1.98;;;10.60;99.90;;;;;;5052572;28;20210;-50
2022/11/17 01:28:44;;;;;;;3.75;1.60;;;10.60;99.90;;;;;;5034270;28;20174;-50
2022/11/17 01:31:15;;;;;;;4.43;1.65;;;10.70;99.90;;;;;;5052453;28;20170;-50
2022/11/17 01:33:41;;;;;;;3.08;1.40;;;10.60;99.90;;;;;;5034446;28;20162;-49
2022/11/17 01:36:28;;;;;;;2.88;1.83;;;10.60;99.90;;;;;;5052679;28;20216;-50
2022/11/17 01:38:53;;;;;;;6.07;1.88;;;10.60;99.90;;;;;;5051599;28;20198;-50
2022/11/17 01:41:20;;;;;;;4.65;1.60;;;10.60;99.90;;;;;;5052233;28;20162;-50
2022/11/17 01:43:50;;;;;;;6.43;1.98;;;10.60;99.90;;;;;;5052344;28;20170;-50
2022/11/17 01:46:26;;;;;;;3.50;1.40;;;10.60;99.90;;;;;;5034185;28;20213;-50
2022/11/17 01:48:59;;;;;;;2.63;1.30;;;10.60;99.90;;;;;;5052012;28;20170;-50
2022/11/17 01:51:26;;;;;;;2.80;1.20;;;10.60;99.90;;;;;;5052050;28;20706;-50
2022/11/17 01:53:52;;;;;;;1.58;1.27;;;10.70;99.90;;;;;;5051671;28;20163;-50
2022/11/17 01:56:24;;;;;;;4.97;1.38;;;10.70;99.90;;;;;;5051719;28;20568;-50
2022/11/17 01:58:57;;;;;;;3.35;1.40;;;10.70;99.90;;;;;;5051925;28;20249;-50
2022/11/17 02:01:22;;;;;;;2.60;1.55;;;10.70;99.90;;;;;;5051907;28;20269;-50
2022/11/17 02:03:50;;;;;;;3.03;1.38;;;10.70;99.90;;;;;;5051914;28;20297;-50
2022/11/17 02:06:34;;;;;;;2.13;1.20;;;10.70;99.90;;;;;;5051893;28;20213;-50
2022/11/17 02:09:02;;;;;;;2.08;1.20;;;10.70;99.90;;;;;;5051597;28;20249;-50
2022/11/17 02:11:34;;;;;;;2.58;1.13;;;10.70;99.90;;;;;;5051786;28;20676;-50
2022/11/17 02:14:02;;;;;;;3.50;1.48;;;10.70;99.90;;;;;;5051756;28;20232;-50
2022/11/17 02:16:28;;;;;;;2.67;1.45;;;10.70;99.90;;;;;;5052159;28;20202;-49
2022/11/17 02:18:53;;;;;;;1.40;1.20;;;10.70;99.90;;;;;;5051826;28;20209;-50
2022/11/17 02:21:36;;;;;;;4.60;1.33;;;10.70;99.90;;;;;;5051661;28;20175;-50
2022/11/17 02:24:30;;;;;;;2.22;1.08;;;10.70;99.90;;;;;;5034420;28;20169;-50
2022/11/17 02:27:20;;;;;;;1.17;1.00;;;10.70;99.90;;;;;;5051517;28;20297;-50
2022/11/17 02:30:07;;;;;;;1.73;1.23;;;10.70;99.90;;;;;;5051560;28;20171;-50
2022/11/17 02:32:41;;;;;;;1.77;1.30;;;10.70;99.90;;;;;;5038759;28;20185;-50
2022/11/17 02:35:27;;;;;;;2.08;1.23;;;10.70;99.90;;;;;;5051828;28;20163;-50
2022/11/17 02:38:20;;;;;;;2.45;1.50;;;10.70;99.90;;;;;;5033301;28;20707;-50
2022/11/17 02:41:06;;;;;;;3.30;1.40;;;10.70;99.90;;;;;;5051518;28;20175;-50
2022/11/17 02:46:31;;;;;;;2.22;1.45;;;10.70;99.90;;;;;;5051564;28;20217;-50
2022/11/17 02:49:06;;;;;;;3.17;1.10;;;10.70;99.90;;;;;;5051404;28;20166;-50
2022/11/17 02:51:33;;;;;;;2.08;1.58;;;10.70;99.90;;;;;;5051418;28;20248;-50
2022/11/17 02:54:01;;;;;;;2.78;1.23;;;10.70;99.90;;;;;;5051261;28;20170;-50
2022/11/17 02:56:26;;;;;;;3.15;1.50;;;10.60;99.90;;;;;;5051371;28;20179;-50
2022/11/17 02:58:58;;;;;;;2.65;1.60;;;10.60;99.90;;;;;;5051461;28;20233;-50
2022/11/17 03:01:29;;;;;;;3.85;1.70;;;10.60;99.90;;;;;;5034023;28;20643;-50
2022/11/17 03:04:17;;;;;;;2.50;1.60;;;10.70;99.90;;;;;;5051358;28;20163;-49
2022/11/17 03:07:12;;;;;;;3.13;1.30;;;10.60;99.90;;;;;;5053891;28;20209;-50
2022/11/17 03:09:43;;;;;;;2.05;1.42;;;10.60;99.90;;;;;;5048451;28;20193;-50
2022/11/17 03:12:22;;;;;;;4.13;1.38;;;10.60;99.90;;;;;;5054999;28;20162;-50
2022/11/17 03:15:22;;;;;;;3.67;1.35;;;10.70;99.90;;;;;;5055233;28;20193;-50
2022/11/17 03:18:13;;;;;;;4.13;1.42;;;10.70;99.90;;;;;;5055105;28;20258;-50
2022/11/17 03:20:54;;;;;;;1.77;1.05;;;10.60;99.90;;;;;;5054823;28;20577;-50
2022/11/17 03:23:49;;;;;;;1.90;1.05;;;10.60;99.90;;;;;;5054736;28;20224;-50
2022/11/17 03:26:21;;;;;;;4.57;1.50;;;10.70;99.90;;;;;;5018756;28;20280;-50
2022/11/17 03:28:46;;;;;;;3.92;1.23;;;10.60;99.90;;;;;;5054786;28;20213;-51
2022/11/17 03:31:15;;;;;;;1.58;0.90;;;10.60;99.90;;;;;;5054970;28;20166;-50
2022/11/17 03:33:43;;;;;;;2.60;1.27;;;10.70;99.90;;;;;;5054906;28;20181;-51
2022/11/17 03:36:13;;;;;;;2.58;1.08;;;10.60;99.90;;;;;;5054648;28;20179;-50
2022/11/17 03:38:55;;;;;;;2.97;1.20;;;10.60;99.90;;;;;;5054793;28;20538;-51
2022/11/17 03:41:22;;;;;;;1.52;1.08;;;10.60;99.90;;;;;;5054532;28;20170;-50
2022/11/17 03:43:50;;;;;;;1.38;0.90;;;10.60;99.90;;;;;;5054372;28;20574;-50
2022/11/17 03:46:19;;;;;;;2.10;1.35;;;10.60;99.90;;;;;;5054214;28;20657;-51
2022/11/17 03:48:56;;;;;;;3.45;1.15;;;10.50;99.90;;;;;;5054411;28;20178;-51
2022/11/17 03:51:27;;;;;;;1.17;1.02;;;10.50;99.90;;;;;;5054251;28;20158;-50
2022/11/17 03:53:54;;;;;;;2.35;1.30;;;10.70;99.90;;;;;;5054514;28;20201;-51
2022/11/17 03:56:28;;;;;;;3.97;1.23;;;10.40;99.90;;;;;;5036142;28;20250;-50
2022/11/17 03:59:01;;;;;;;2.55;0.70;;;10.40;99.90;;;;;;5054114;28;20162;-51
2022/11/17 04:01:30;;;;;;;2.95;0.70;;;10.50;99.90;;;;;;5054076;28;20273;-50
2022/11/17 04:03:56;;;;;;;2.78;1.10;;;10.40;99.90;;;;;;5054351;28;20171;-51
2022/11/17 04:06:21;;;;;;;0.80;0.80;;;10.40;99.90;;;;;;5053901;28;20541;-51
2022/11/17 04:08:47;;;;;;;2.80;0.90;;;10.40;99.90;;;;;;5054012;28;20178;-50
2022/11/17 04:16:41;;;;;;;4.07;1.33;;;10.30;99.90;;;;;;5053978;28;20182;-50
2022/11/17 04:19:07;;;;;;;1.20;1.10;;;10.30;99.90;;;;;;5035721;28;20179;-51
2022/11/17 04:21:32;;;;;;;5.88;2.92;;;10.20;99.90;;;;;;5053778;28;20163;-51
2022/11/17 04:23:58;;;;;;;3.95;2.40;;;10.20;99.90;;;;;;5053608;28;20167;-52
2022/11/17 04:29:08;;;;;;;4.28;1.75;;;10.10;99.90;;;;;;5054169;28;20177;-50
2022/11/17 04:31:33;;;;;;;4.25;1.63;;;10.10;99.90;;;;;;5054168;28;20631;-50
2022/11/17 04:34:04;;;;;;;2.50;1.00;;;10.10;99.90;;;;;;5053636;28;20549;-50
2022/11/17 04:36:39;;;;;;;3.13;1.13;;;10.10;99.90;;;;;;5053702;28;20170;-50
2022/11/17 04:39:05;;;;;;;1.50;1.20;;;10.00;99.90;;;;;;5054002;28;20197;-50
2022/11/17 04:44:18;;;;;;;3.97;1.25;;;10.00;99.90;;;;;;5053588;28;20174;-50
2022/11/17 04:46:45;;;;;;;2.60;1.40;;;10.10;99.90;;;;;;5053174;28;20198;-51
2022/11/17 04:49:11;;;;;;;4.10;1.55;;;10.10;99.90;;;;;;5053154;28;20538;-51
2022/11/17 04:51:37;;;;;;;2.83;1.10;;;10.20;99.90;;;;;;5053491;28;20253;-51
2022/11/17 04:54:04;;;;;;;2.70;1.20;;;10.20;99.90;;;;;;5053669;28;20189;-52
2022/11/17 04:56:30;;;;;;;3.97;1.60;;;10.30;99.90;;;;;;5053207;28;20167;-52
2022/11/17 04:58:56;;;;;;;1.60;1.00;;;10.30;99.90;;;;;;5053268;28;20514;-51
2022/11/17 05:01:22;;;;;;;4.00;1.20;;;10.30;99.90;;;;;;5013486;28;20204;-50
2022/11/17 05:03:57;;;;;;;3.17;1.42;;;10.30;99.90;;;;;;5013737;28;20559;-51
2022/11/17 05:06:25;;;;;;;2.15;1.45;;;10.40;99.90;;;;;;5013062;28;20254;-52
2022/11/17 05:08:55;;;;;;;1.77;1.30;;;10.40;99.90;;;;;;5013344;28;20255;-52
2022/11/17 05:14:07;;;;;;;1.98;1.25;;;10.40;99.90;;;;;;5013629;28;20535;-51
2022/11/17 05:19:22;;;;;;;3.10;1.40;;;10.40;99.90;;;;;;5013197;28;20175;-52
2022/11/17 05:21:48;;;;;;;5.40;1.65;;;10.40;99.90;;;;;;5013000;28;20180;-51
2022/11/17 05:24:14;;;;;;;5.32;1.55;;;10.40;99.90;;;;;;5012824;28;20171;-50
2022/11/17 05:26:41;;;;;;;2.85;1.33;;;10.40;99.90;;;;;;5012697;28;20208;-50
2022/11/17 05:29:08;;;;;;;1.75;1.40;;;10.40;99.90;;;;;;5011156;28;20620;-51
2022/11/17 05:31:34;;;;;;;12.25;4.47;;;10.40;99.90;;;;;;5013173;28;20176;-49
2022/11/17 05:34:01;;;;;;;5.75;3.22;;;10.40;99.90;;;;;;5012681;28;20175;-50
2022/11/17 05:36:27;;;;;;;2.97;1.48;;;10.40;99.90;;;;;;5012796;28;20531;-50
2022/11/17 05:38:53;;;;;;;2.97;2.20;;;10.40;99.90;;;;;;5012574;28;20620;-51
2022/11/17 05:41:19;;;;;;;4.40;2.78;;;10.40;99.90;;;;;;5012417;28;20175;-50
2022/11/17 05:43:45;;;;;;;7.53;2.55;;;10.50;99.90;;;;;;5012159;28;20168;-50
2022/11/17 05:46:11;;;;;;;7.15;1.95;;;10.50;99.90;;;;;;5012299;28;20196;-50
2022/11/17 05:48:38;;;;;;;2.95;1.55;;;10.50;99.90;;;;;;5012680;28;20207;-50
2022/11/17 05:51:05;;;;;;;2.95;1.30;;;10.40;99.90;;;;;;5012747;28;20164;-50
2022/11/17 05:53:31;;;;;;;5.57;1.80;;;10.40;99.90;;;;;;5012320;28;20167;-50
2022/11/17 05:56:27;;;;;;;8.40;1.80;;;10.50;99.90;;;;;;5012225;28;20251;-51
2022/11/17 05:58:59;;;;;;;5.45;1.83;;;10.50;99.90;;;;;;5010176;28;20266;-50
2022/11/17 06:01:26;;;;;;;5.03;1.90;;;10.50;99.90;;;;;;5012204;28;20192;-50
2022/11/17 06:03:58;;;;;;;4.22;1.60;;;10.50;99.90;;;;;;5012398;28;20637;-50
2022/11/17 06:06:23;;;;;;;3.33;1.85;;;10.50;99.90;;;;;;5011973;28;20294;-50
2022/11/17 06:08:49;;;;;;;5.97;2.15;;;10.60;99.90;;;;;;5012153;28;20214;-50
2022/11/17 06:11:15;;;;;;;4.10;1.50;;;10.60;99.90;;;;;;5012056;28;20168;-50
2022/11/17 06:13:41;;;;;;;4.35;1.63;;;10.60;99.90;;;;;;5012298;28;20171;-50
2022/11/17 06:16:10;;;;;;;4.97;1.58;;;10.60;99.90;;;;;;5012310;28;20164;-50
2022/11/17 06:18:43;;;;;;;5.13;1.50;;;10.70;99.90;;;;;;5012441;28;20197;-51
2022/11/17 06:21:10;;;;;;;2.45;1.08;;;10.60;99.90;;;;;;5012335;28;20172;-50
2022/11/17 06:23:36;;;;;;;2.22;1.13;;;10.60;99.90;;;;;;5011093;28;20172;-50
2022/11/17 06:26:06;;;;;;;1.45;1.05;;;10.70;99.90;;;;;;5012161;28;20206;-50
2022/11/17 06:28:32;;;;;;;4.38;1.20;;;10.70;99.90;;;;;;5012162;28;20179;-50
2022/11/17 06:30:58;;;;;;;1.42;1.00;;;10.70;99.90;;;;;;5011952;28;20682;-50
2022/11/17 06:33:25;;;;;;;7.00;1.75;;;10.60;99.90;;;;;;5011921;28;20175;-50
2022/11/17 06:35:51;;;;;;;3.63;1.25;;;10.60;99.90;;;;;;5012066;28;20172;-50
2022/11/17 06:38:16;;;;;;;3.35;1.33;;;10.60;99.90;;;;;;5011905;28;20199;-50
2022/11/17 06:40:42;;;;;;;6.35;1.48;;;10.70;99.90;;;;;;5012797;28;20203;-50
2022/11/17 06:43:10;;;;;;;7.30;1.50;;;10.60;99.90;;;;;;5015906;28;20164;-50
2022/11/17 06:45:40;;;;;;;3.13;1.17;;;10.60;99.90;;;;;;5016043;28;20191;-50
2022/11/17 06:48:07;;;;;;;3.10;1.17;;;10.60;99.90;;;;;;5016073;28;20180;-50
2022/11/17 06:50:33;;;;;;;4.85;1.58;;;11.00;99.90;;;;;;5015973;28;20250;-50
2022/11/17 06:53:01;;;;;;;3.92;1.48;;;10.60;99.90;;;;;;5015646;28;20255;-50
2022/11/17 06:55:27;;;;;;;4.80;2.35;;;10.60;99.90;;;;;;5015655;28;20195;-50
2022/11/17 06:57:59;;;;;;;2.97;1.30;;;10.70;99.90;;;;;;5015620;28;20624;-50
2022/11/17 07:00:25;;;;;;;4.35;1.17;;;10.70;99.90;;;;;;5039468;28;20230;-50
2022/11/17 07:02:51;;;;;;;1.50;1.13;;;10.70;99.90;;;;;;5055223;28;20159;-50
2022/11/17 07:05:16;;;;;;;3.55;1.20;;;10.70;99.90;;;;;;5055085;28;20561;-50
2022/11/17 07:07:42;;;;;;;4.10;0.98;;;10.70;99.90;;;;;;5055074;28;20327;-50
2022/11/17 07:10:08;;;;;;;1.48;1.00;;;10.70;99.90;;;;;;5054986;28;20194;-50
2022/11/17 07:12:33;;;;;;;1.90;1.00;;;10.70;99.90;;;;;;5055329;28;20167;-50
2022/11/17 07:14:59;;;;;;;3.25;1.30;;;10.80;99.90;;;;;;5054891;28;20163;-50
2022/11/17 07:17:24;;;;;;;2.55;1.08;;;10.80;99.90;;;;;;5054937;28;20185;-50
2022/11/17 07:19:50;;;;;;;3.65;1.30;;;10.70;99.90;;;;;;5054752;28;20166;-50
2022/11/17 07:22:15;;;;;;;1.15;0.52;;;10.80;99.90;;;;;;5054808;28;20224;-50
2022/11/17 07:24:41;;;;;;;2.33;1.38;;;10.90;99.90;;;;;;5054839;28;20198;-50
2022/11/17 07:27:07;;;;;;;5.05;1.95;;;10.80;99.90;;;;;;5054958;28;20206;-51
2022/11/17 07:29:32;;;;;;;4.95;2.00;;;10.90;99.90;;;;;;5055194;28;20162;-52
2022/11/17 07:31:58;;;;;;;5.60;2.47;;;11.00;99.90;;;;;;5054587;28;20169;-50
2022/11/17 07:34:23;;;;;;;10.15;3.10;;;11.10;99.90;;;;;;5054491;28;20575;-50
2022/11/17 07:36:49;;;;;;;3.22;1.52;;;11.20;99.90;;;;;;5054589;28;20634;-51
2022/11/17 07:39:14;;;;;;;7.10;2.28;;;11.20;99.90;;;;;;5054617;28;20568;-50
2022/11/17 07:41:40;;;;;;;2.05;1.10;;;11.30;99.90;;;;;;5054453;28;20740;-50
2022/11/17 07:44:06;;;;;;;1.75;0.93;;;11.20;99.90;;;;;;5054875;28;20198;-50
2022/11/17 07:46:31;;;;;;;0.45;0.45;;;11.20;99.90;;;;;;5054351;28;20292;-50
2022/11/17 07:48:57;;;;;;;2.25;1.00;;;11.20;99.90;;;;;;5036457;28;20182;-50
2022/11/17 07:51:22;;;;;;;5.32;1.10;;;11.20;99.90;;;;;;5054264;28;20185;-50
2022/11/17 07:53:48;;;;;;;1.75;1.17;;;11.20;99.90;;;;;;5053182;28;20237;-51
2022/11/17 07:56:14;;;;;;;4.90;1.25;;;11.20;99.90;;;;;;5054148;28;20155;-52
2022/11/17 07:58:40;;;;;;;5.00;1.00;;;11.10;99.90;;;;;;5054132;28;20650;-51
2022/11/17 08:01:10;;;;;;;4.40;1.15;;;11.10;99.90;;;;;;5067570;28;20619;-52
2022/11/17 08:03:36;;;;;;;3.67;0.98;;;11.10;99.90;;;;;;5072758;28;20207;-52
2022/11/17 08:06:03;;;;;;;4.70;1.13;;;11.10;99.90;;;;;;5054944;28;20198;-52
2022/11/17 08:08:28;;;;;;;2.45;0.80;;;11.10;99.90;;;;;;5052296;28;20190;-55
2022/11/17 08:10:54;;;;;;;1.67;0.68;;;11.10;99.90;;;;;;5052137;28;20654;-56
2022/11/17 08:13:19;;;;;;;2.33;0.90;;;11.20;99.90;;;;;;5052309;28;20175;-59
2022/11/17 08:15:45;;;;;;;2.20;1.20;;;11.20;99.90;;;;;;5052127;28;20194;-50
2022/11/17 08:18:11;;;;;;;1.67;0.70;;;11.20;99.90;;;;;;5052054;28;20595;-53
2022/11/17 08:20:36;;;;;;;1.38;0.60;;;11.10;99.90;;;;;;5052685;28;20667;-52
2022/11/17 08:23:02;;;;;;;1.50;0.60;;;11.20;99.90;;;;;;5052587;28;20184;-53
2022/11/17 08:25:27;;;;;;;1.27;0.63;;;11.20;99.90;;;;;;5052191;28;20182;-51
2022/11/17 08:27:57;;;;;;;1.52;0.60;;;11.20;99.90;;;;;;5051725;28;20202;-52
2022/11/17 08:30:23;;;;;;;1.77;1.02;;;11.30;99.90;;;;;;5051926;28;20623;-51
2022/11/17 08:32:51;;;;;;;2.25;0.90;;;11.30;99.90;;;;;;5052003;28;20175;-53
2022/11/17 08:35:19;;;;;;;4.53;1.33;;;11.20;99.90;;;;;;5051879;28;20197;-52
2022/11/17 08:37:45;;;;;;;2.75;1.02;;;11.20;99.90;;;;;;5051882;28;20179;-52
2022/11/17 08:40:12;;;;;;;1.60;0.80;;;11.30;99.90;;;;;;5051647;28;20174;-52
2022/11/17 08:42:38;;;;;;;1.00;0.70;;;11.30;99.90;;;;;;5034636;28;20170;-52
2022/11/17 08:45:05;;;;;;;4.75;1.17;;;11.30;99.90;;;;;;5052300;28;20171;-53
2022/11/17 08:47:31;;;;;;;1.77;0.90;;;11.40;99.90;;;;;;5051970;28;20545;-53
2022/11/17 08:49:56;;;;;;;0.90;0.52;;;11.40;99.90;;;;;;5033743;28;20244;-50
2022/11/17 08:52:22;;;;;;;21.85;3.65;;;11.40;99.90;;;;;;5051000;28;20166;-53
2022/11/17 08:54:49;;;;;;;2.35;0.75;;;11.60;99.90;;;;;;5051551;28;20171;-52
2022/11/17 08:57:15;;;;;;;2.13;0.90;;;11.60;99.90;;;;;;5051963;28;20182;-52
2022/11/17 08:59:40;;;;;;;0.75;0.50;;;11.60;99.90;;;;;;5051436;28;20211;-52
2022/11/17 09:02:06;;;;;;;3.85;0.70;;;11.60;99.90;;;;;;5051281;28;20171;-52
2022/11/17 09:04:32;;;;;;;0.90;0.70;;;11.70;99.90;;;;;;5051677;28;20190;-52
2022/11/17 09:06:57;;;;;;;1.35;0.60;;;11.70;99.90;;;;;;5051207;28;20210;-51
2022/11/17 09:09:24;;;;;;;3.00;0.68;;;11.70;99.90;;;;;;5051069;28;20245;-51
2022/11/17 09:11:49;;;;;;;2.22;1.00;;;11.70;99.90;;;;;;5051483;28;20634;-52
2022/11/17 09:14:15;;;;;;;1.75;0.82;;;11.80;99.90;;;;;;5066162;28;20170;-52
2022/11/17 09:16:40;;;;;;;1.17;0.82;;;11.80;99.90;;;;;;5070894;28;20165;-52
2022/11/17 09:19:06;;;;;;;2.40;1.17;;;11.80;99.90;;;;;;5071204;28;20257;-52
2022/11/17 09:21:32;;;;;;;1.45;1.10;;;11.80;99.90;;;;;;5071530;28;20170;-52
2022/11/17 09:23:58;;;;;;;4.32;0.80;;;11.80;99.90;;;;;;5070538;28;20158;-52
2022/11/17 09:26:24;;;;;;;1.90;0.30;;;11.80;99.90;;;;;;5070378;28;20228;-53
2022/11/17 09:28:50;;;;;;;1.75;0.38;;;11.80;99.90;;;;;;5070808;28;20169;-52
2022/11/17 09:31:18;;;;;;;2.80;0.63;;;11.90;99.90;;;;;;5070684;28;20170;-52
2022/11/17 09:33:44;;;;;;;1.33;0.50;;;11.90;99.90;;;;;;5070427;28;20166;-52
2022/11/17 09:36:12;;;;;;;0.95;0.40;;;11.90;99.90;;;;;;5070796;28;20172;-53
2022/11/17 09:38:38;;;;;;;2.05;0.60;;;12.00;99.90;;;;;;5070003;28;20629;-52
2022/11/17 09:41:15;;;;;;;0.82;0.47;;;12.10;99.90;;;;;;5070828;28;20629;-52
2022/11/17 09:43:53;;;;;;;2.60;0.75;;;12.20;99.90;;;;;;5070518;28;20174;-52
2022/11/17 09:46:36;;;;;;;1.30;0.40;;;12.30;99.90;;;;;;5070378;28;20198;-52
2022/11/17 09:49:09;;;;;;;0.65;0.55;;;12.30;99.90;;;;;;5070662;28;20173;-52
2022/11/17 09:51:37;;;;;;;1.05;0.32;;;12.30;99.90;;;;;;5070969;28;20618;-51
2022/11/17 09:54:13;;;;;;;3.55;0.85;;;12.30;99.90;;;;;;5070267;28;20766;-52
2022/11/17 09:56:39;;;;;;;4.75;0.80;;;12.30;99.90;;;;;;5070099;28;20184;-52
2022/11/17 09:59:11;;;;;;;1.55;0.82;;;12.30;99.90;;;;;;5070696;28;20162;-52
2022/11/17 10:01:37;;;;;;;1.83;0.70;;;12.30;99.90;;;;;;5070916;28;20177;-51
2022/11/17 10:04:07;;;;;;;0.95;0.73;;;12.30;99.90;;;;;;5070925;28;20166;-52
2022/11/17 10:06:33;;;;;;;2.70;0.55;;;12.30;99.90;;;;;;5070293;28;20288;-52
2022/11/17 10:09:21;;;;;;;3.42;0.90;;;12.30;99.90;;;;;;5070211;28;20262;-52
2022/11/17 10:11:47;;;;;;;1.40;0.70;;;12.40;99.90;;;;;;5070063;28;20161;-52
2022/11/17 10:14:20;;;;;;;1.92;1.02;;;12.30;99.90;;;;;;5070475;28;20173;-52
2022/11/17 10:16:51;;;;;;;1.48;0.80;;;12.30;99.90;;;;;;5070013;28;20180;-52
2022/11/17 10:19:20;;;;;;;2.35;0.90;;;12.30;99.90;;;;;;5070082;28;20207;-52
2022/11/17 10:21:50;;;;;;;2.20;0.75;;;12.30;99.90;;;;;;5070012;28;20177;-52
2022/11/17 10:24:35;;;;;;;1.20;0.60;;;12.30;99.90;;;;;;5070144;28;20166;-52
2022/11/17 10:27:16;;;;;;;1.55;0.90;;;12.30;99.90;;;;;;5070017;28;20610;-53
2022/11/17 10:30:17;;;;;;;2.13;0.68;;;12.30;99.90;;;;;;5051803;28;20202;-52
2022/11/17 10:32:48;;;;;;;2.60;0.80;;;12.30;99.90;;;;;;5052114;28;20201;-52
2022/11/17 10:35:17;;;;;;;2.17;0.55;;;12.20;99.90;;;;;;5069640;28;20181;-52
2022/11/17 10:38:05;;;;;;;0.60;0.50;;;12.20;99.90;;;;;;5069430;28;20173;-50
2022/11/17 10:40:44;;;;;;;5.03;0.93;;;12.20;99.90;;;;;;5071006;28;20663;-52
2022/11/17 10:43:12;;;;;;;1.80;0.80;;;12.30;99.90;;;;;;5071787;28;20257;-52
2022/11/17 10:45:45;;;;;;;5.65;1.00;;;12.20;99.90;;;;;;5071688;28;20205;-52
2022/11/17 10:48:29;;;;;;;1.92;0.82;;;12.20;99.90;;;;;;5071331;28;20209;-52
2022/11/17 10:51:03;;;;;;;2.30;0.80;;;12.20;99.90;;;;;;5071478;28;20170;-52
2022/11/17 10:53:37;;;;;;;2.33;1.10;;;12.20;99.90;;;;;;5071365;28;20588;-51
2022/11/17 10:56:13;;;;;;;4.38;1.55;;;12.20;99.90;;;;;;5071938;28;20174;-52
2022/11/17 10:59:22;;;;;;;0.75;0.55;;;12.20;99.90;;;;;;5071528;28;20166;-52
2022/11/17 11:01:51;;;;;;;1.67;0.65;;;12.20;99.90;;;;;;5033629;28;20580;-51
2022/11/17 11:04:28;;;;;;;1.20;0.60;;;12.20;99.90;;;;;;5071332;28;20253;-52
2022/11/17 11:07:22;;;;;;;4.00;0.80;;;12.20;99.90;;;;;;5071407;28;20197;-52
2022/11/17 11:10:01;;;;;;;1.80;1.08;;;12.20;99.90;;;;;;5071242;28;20162;-51
2022/11/17 11:12:40;;;;;;;1.33;0.65;;;12.30;99.90;;;;;;5071535;28;20166;-52
2022/11/17 11:15:12;;;;;;;6.20;1.30;;;12.30;99.90;;;;;;5071471;28;20174;-52
2022/11/17 11:17:38;;;;;;;2.10;1.00;;;12.30;99.90;;;;;;5071132;28;20166;-52
2022/11/17 11:20:11;;;;;;;3.55;0.93;;;12.40;99.90;;;;;;5071442;28;20162;-51
2022/11/17 11:22:42;;;;;;;1.30;0.80;;;12.40;99.90;;;;;;5070997;28;20202;-52
2022/11/17 11:25:16;;;;;;;2.60;1.20;;;12.40;99.90;;;;;;5053043;28;20622;-52
2022/11/17 11:28:10;;;;;;;0.90;0.40;;;12.40;99.90;;;;;;5055541;28;20282;-52
2022/11/17 11:31:10;;;;;;;3.28;0.70;;;12.40;99.90;;;;;;5075092;28;20252;-52
2022/11/17 11:33:46;;;;;;;1.08;0.90;;;12.50;99.90;;;;;;5074666;28;20166;-50
2022/11/17 11:36:30;;;;;;;3.70;0.85;;;12.50;99.90;;;;;;5074699;28;20169;-51
2022/11/17 11:38:58;;;;;;;2.28;0.90;;;12.50;99.90;;;;;;5056630;28;20645;-50
2022/11/17 11:41:47;;;;;;;1.85;0.98;;;12.50;99.90;;;;;;5074475;28;20169;-50
2022/11/17 11:44:21;;;;;;;4.22;0.82;;;12.50;99.90;;;;;;5074472;28;20170;-50
2022/11/17 11:47:18;;;;;;;3.78;0.60;;;12.50;99.90;;;;;;5074303;28;20200;-51
2022/11/17 11:49:51;;;;;;;0.68;0.40;;;12.40;99.90;;;;;;5057786;28;20239;-51
2022/11/17 11:52:20;;;;;;;3.58;0.82;;;12.50;99.90;;;;;;5074328;28;20174;-52
2022/11/17 11:55:00;;;;;;;4.35;1.35;;;12.50;99.90;;;;;;5074226;28;20169;-52
2022/11/17 11:57:35;;;;;;;2.67;0.88;;;12.60;99.90;;;;;;5074131;28;20204;-51
2022/11/17 12:00:05;;;;;;;1.35;0.68;;;12.60;99.90;;;;;;5074358;28;20731;-52
2022/11/17 12:02:39;;;;;;;2.47;0.80;;;12.60;99.90;;;;;;5074495;28;20257;-50
2022/11/17 12:05:10;;;;;;;3.67;1.08;;;12.60;99.90;;;;;;5074500;28;20241;-51
2022/11/17 12:07:42;;;;;;;1.35;0.68;;;12.60;99.90;;;;;;5074202;28;20202;-52
2022/11/17 12:10:31;;;;;;;1.10;0.35;;;12.60;99.90;;;;;;5074231;28;20534;-50
2022/11/17 12:12:58;;;;;;;1.10;0.63;;;12.60;99.90;;;;;;5074039;28;20170;-51
2022/11/17 12:15:23;;;;;;;1.38;0.80;;;12.60;99.90;;;;;;5073867;28;20569;-50
2022/11/17 12:17:52;;;;;;;2.38;0.63;;;12.60;99.90;;;;;;5073819;28;20166;-51
2022/11/17 12:20:29;;;;;;;2.00;0.80;;;12.60;99.90;;;;;;5073817;28;20646;-51
2022/11/17 12:23:08;;;;;;;2.45;0.70;;;12.60;99.90;;;;;;5073720;28;20162;-50
2022/11/17 12:25:35;;;;;;;1.92;0.70;;;12.60;99.90;;;;;;5055905;28;20733;-51
2022/11/17 12:28:31;;;;;;;1.40;0.68;;;12.60;99.90;;;;;;5073922;28;20224;-49
2022/11/17 12:31:11;;;;;;;5.05;1.05;;;12.60;99.90;;;;;;5073586;28;20162;-50
2022/11/17 12:33:52;;;;;;;1.92;0.52;;;12.60;99.90;;;;;;5073456;28;20656;-50
2022/11/17 12:36:23;;;;;;;2.60;0.90;;;12.60;99.90;;;;;;5073462;28;20176;-51
2022/11/17 12:38:50;;;;;;;1.27;0.80;;;12.60;99.90;;;;;;5072855;28;20174;-50
2022/11/17 12:41:47;;;;;;;0.73;0.65;;;12.60;99.90;;;;;;5073487;28;20546;-50
2022/11/17 12:44:31;;;;;;;2.85;1.00;;;12.60;99.90;;;;;;5073369;28;20170;-50
2022/11/17 12:47:16;;;;;;;2.00;0.73;;;12.60;99.90;;;;;;5073172;28;20246;-50
2022/11/17 12:50:10;;;;;;;3.70;1.00;;;12.60;99.90;;;;;;5072680;28;20186;-50
2022/11/17 12:53:04;;;;;;;2.38;0.63;;;12.60;99.90;;;;;;5055397;28;20175;-50
2022/11/17 12:56:06;;;;;;;3.17;1.08;;;12.60;99.90;;;;;;5072958;28;20170;-51
2022/11/17 12:58:51;;;;;;;1.60;0.98;;;12.60;99.90;;;;;;4992004;28;20167;-50
2022/11/17 13:01:36;;;;;;;4.03;0.80;;;12.60;99.90;;;;;;5066952;28;20218;-50
2022/11/17 13:04:15;;;;;;;1.73;0.77;;;12.60;99.90;;;;;;5073279;28;20177;-50
2022/11/17 13:07:04;;;;;;;2.53;0.68;;;12.60;99.90;;;;;;5072786;28;20197;-50
2022/11/17 13:09:32;;;;;;;2.53;0.95;;;12.60;99.90;;;;;;5072699;28;20162;-50
2022/11/17 13:11:59;;;;;;;1.88;0.80;;;12.60;99.90;;;;;;5072674;28;20166;-50
2022/11/17 13:14:25;;;;;;;4.38;0.82;;;12.60;99.90;;;;;;5072795;28;20167;-49
2022/11/17 13:16:51;;;;;;;3.75;1.10;;;12.60;99.90;;;;;;5072625;28;20173;-50
2022/11/17 13:19:32;;;;;;;3.78;0.98;;;12.60;99.90;;;;;;5072623;28;20501;-50
2022/11/17 13:22:00;;;;;;;1.70;0.90;;;12.70;99.90;;;;;;5072560;28;20170;-50
2022/11/17 13:24:35;;;;;;;3.05;0.80;;;12.70;99.90;;;;;;5072560;28;20176;-49
2022/11/17 13:27:06;;;;;;;2.47;0.95;;;12.70;99.90;;;;;;5072478;28;20213;-50
2022/11/17 13:29:32;;;;;;;2.90;0.88;;;12.70;99.90;;;;;;5072661;28;20227;-50
2022/11/17 13:32:27;;;;;;;3.10;0.88;;;12.80;99.90;;;;;;5072376;28;20200;-50
2022/11/17 13:34:55;;;;;;;2.25;0.60;;;12.80;99.90;;;;;;5055327;28;20668;-50